Emporia, Kansas
Current Conditions -  °F | °C
As of 3:05 PM on Sunday 23 Nov 2014 (Local Time) from KEMP Reporting Station
Light Rain Light Rain  
Wind Chill: 39°   Ceiling: 1600
Heat Index: 46°   Visibility: 10mi
Dew Point: 42°   Wind: 17mph
Humidity: 86%   Direction: 350°N
Pressure: 29.39"   Gusts: 36mph
Location:  38.41°N, 96.18°W
Report Text: KEMP 232105Z AUTO 35015G31KT 10SM -RA BKN016 OVC020 08/06 A2939 RMK AO2 PK WND 34031/2057 RAB2057 P0000 T00780056
Loading
Personal Weather Stations






























Interactive Weather Map New forecast layout! Learn more

10-Day Weather Forecast

Advertisements
Track Severe Weather on mobile